createdAt,value
2022-11-27T00:01:21.300Z,4.47
2022-11-27T00:03:48.297Z,4.28
2022-11-27T00:06:17.825Z,4.70
2022-11-27T00:08:45.561Z,4.85
2022-11-27T00:11:15.812Z,5.18
2022-11-27T00:13:42.664Z,4.95
2022-11-27T00:16:09.693Z,5.03
2022-11-27T00:18:36.687Z,5.38
2022-11-27T00:21:13.390Z,5.60
2022-11-27T00:23:40.768Z,5.22
2022-11-27T00:26:08.058Z,5.57
2022-11-27T00:28:41.723Z,4.88
2022-11-27T00:31:21.201Z,5.00
2022-11-27T00:33:48.132Z,4.55
2022-11-27T00:36:15.931Z,4.85
2022-11-27T00:38:42.735Z,5.22
2022-11-27T00:41:12.318Z,5.53
2022-11-27T00:43:44.547Z,5.13
2022-11-27T00:46:13.729Z,5.43
2022-11-27T00:48:40.388Z,5.80
2022-11-27T00:51:10.481Z,5.47
2022-11-27T00:53:51.482Z,5.75
2022-11-27T00:56:22.107Z,6.03
2022-11-27T00:58:48.611Z,5.40
2022-11-27T01:01:25.089Z,5.57
2022-11-27T01:03:51.740Z,5.60
2022-11-27T01:06:19.727Z,5.35
2022-11-27T01:08:46.511Z,4.85
2022-11-27T01:11:25.747Z,5.07
2022-11-27T01:13:53.457Z,4.85
2022-11-27T01:16:22.378Z,4.55
2022-11-27T01:18:51.587Z,4.60
2022-11-27T01:21:21.039Z,4.13
2022-11-27T01:23:49.022Z,4.30
2022-11-27T01:26:32.883Z,4.20
2022-11-27T01:28:59.709Z,4.38
2022-11-27T01:31:29.680Z,4.80
2022-11-27T01:33:58.487Z,4.63
2022-11-27T01:36:27.370Z,4.10
2022-11-27T01:38:54.637Z,4.22
2022-11-27T01:41:29.975Z,4.15
2022-11-27T01:44:24.028Z,4.78
2022-11-27T01:46:56.780Z,4.43
2022-11-27T01:49:36.999Z,4.15
2022-11-27T01:52:12.030Z,4.28
2022-11-27T01:54:46.037Z,3.83
2022-11-27T01:57:20.909Z,3.50
2022-11-27T01:59:52.536Z,3.88
2022-11-27T02:02:19.030Z,3.75
2022-11-27T02:04:45.737Z,3.80
2022-11-27T02:07:12.369Z,3.72
2022-11-27T02:09:47.169Z,3.85
2022-11-27T02:12:24.977Z,3.90
2022-11-27T02:15:11.331Z,4.57
2022-11-27T02:17:46.892Z,3.80
2022-11-27T02:20:33.572Z,4.40
2022-11-27T02:26:03.423Z,3.92
2022-11-27T02:29:00.885Z,3.92
2022-11-27T02:32:24.012Z,4.35
2022-11-27T02:35:07.287Z,5.00
2022-11-27T02:37:39.544Z,4.20
2022-11-27T02:40:26.111Z,4.15
2022-11-27T02:45:27.350Z,4.00
2022-11-27T02:47:57.068Z,3.80
2022-11-27T02:50:25.893Z,3.70
2022-11-27T02:53:10.499Z,3.63
2022-11-27T02:55:39.566Z,3.65
2022-11-27T02:58:12.751Z,3.50
2022-11-27T03:00:42.057Z,3.35
2022-11-27T03:03:19.926Z,3.40
2022-11-27T03:05:49.535Z,3.90
2022-11-27T03:08:29.789Z,3.70
2022-11-27T03:11:16.037Z,3.55
2022-11-27T03:13:45.596Z,2.80
2022-11-27T03:16:27.383Z,3.28
2022-11-27T03:19:03.209Z,3.50
2022-11-27T03:21:43.636Z,3.05
2022-11-27T03:24:11.399Z,3.70
2022-11-27T03:26:39.325Z,2.90
2022-11-27T03:29:12.461Z,2.75
2022-11-27T03:31:39.153Z,3.33
2022-11-27T03:34:05.743Z,2.95
2022-11-27T03:36:32.252Z,2.95
2022-11-27T03:38:58.730Z,2.92
2022-11-27T03:41:44.284Z,2.65
2022-11-27T03:44:29.396Z,2.25
2022-11-27T03:47:11.329Z,2.78
2022-11-27T03:49:40.709Z,2.78
2022-11-27T03:52:29.224Z,2.30
2022-11-27T03:55:15.928Z,2.72
2022-11-27T03:57:54.620Z,2.45
2022-11-27T04:00:31.636Z,2.30
2022-11-27T04:02:58.071Z,1.95
2022-11-27T04:05:24.523Z,1.88
2022-11-27T04:07:52.112Z,2.03
2022-11-27T04:10:18.686Z,1.80
2022-11-27T04:12:45.139Z,2.13
2022-11-27T04:15:15.842Z,2.08
2022-11-27T04:17:42.278Z,2.30
2022-11-27T04:20:10.814Z,2.53
2022-11-27T04:22:37.274Z,2.15
2022-11-27T04:25:04.091Z,2.40
2022-11-27T04:27:30.616Z,2.40
2022-11-27T04:29:57.116Z,2.55
2022-11-27T04:32:23.581Z,2.60
2022-11-27T04:34:50.014Z,2.80
2022-11-27T04:37:16.519Z,2.90
2022-11-27T04:39:42.934Z,2.50
2022-11-27T04:42:09.421Z,2.45
2022-11-27T04:44:36.197Z,2.80
2022-11-27T04:47:02.934Z,3.38
2022-11-27T04:49:36.501Z,3.80
2022-11-27T04:52:03.671Z,4.80
2022-11-27T04:54:30.108Z,6.18
2022-11-27T04:56:56.657Z,6.35
2022-11-27T04:59:23.547Z,6.32
2022-11-27T05:01:50.380Z,5.93
2022-11-27T05:04:32.363Z,6.47
2022-11-27T05:06:58.798Z,4.47
2022-11-27T05:09:41.492Z,3.95
2022-11-27T05:12:07.980Z,3.42
2022-11-27T05:14:34.442Z,2.55
2022-11-27T05:17:01.101Z,2.50
2022-11-27T05:19:30.112Z,2.92
2022-11-27T05:21:56.736Z,2.38
2022-11-27T05:24:25.719Z,2.58
2022-11-27T05:26:52.339Z,2.30
2022-11-27T05:29:20.390Z,1.85
2022-11-27T05:31:46.922Z,2.30
2022-11-27T05:34:14.195Z,2.00
2022-11-27T05:36:41.241Z,2.08
2022-11-27T05:39:08.938Z,2.42
2022-11-27T05:41:37.055Z,1.90
2022-11-27T05:44:03.973Z,2.17
2022-11-27T05:46:30.475Z,2.00
2022-11-27T05:48:58.040Z,1.98
2022-11-27T05:51:25.091Z,1.90
2022-11-27T05:53:51.621Z,2.10
2022-11-27T05:56:18.979Z,1.88
2022-11-27T05:58:48.050Z,2.20
2022-11-27T06:01:16.539Z,1.90
2022-11-27T06:03:43.078Z,1.80
2022-11-27T06:06:12.433Z,2.17
2022-11-27T06:08:40.359Z,1.42
2022-11-27T06:11:08.884Z,1.70
2022-11-27T06:13:35.796Z,2.60
2022-11-27T06:16:12.360Z,2.70
2022-11-27T06:18:38.911Z,3.00
2022-11-27T06:21:10.897Z,2.45
2022-11-27T06:23:46.485Z,2.35
2022-11-27T06:26:33.950Z,2.33
2022-11-27T06:29:06.540Z,2.00
2022-11-27T06:31:33.754Z,1.98
2022-11-27T06:34:00.932Z,1.92
2022-11-27T06:36:44.386Z,1.90
2022-11-27T06:39:11.883Z,2.00
2022-11-27T06:41:38.353Z,1.70
2022-11-27T06:44:05.057Z,2.00
2022-11-27T06:46:31.622Z,2.10
2022-11-27T06:48:59.384Z,2.25
2022-11-27T06:51:29.148Z,1.80
2022-11-27T06:53:56.428Z,2.60
2022-11-27T06:56:25.401Z,2.05
2022-11-27T06:58:57.162Z,2.20
2022-11-27T07:01:25.223Z,2.50
2022-11-27T07:03:52.183Z,2.63
2022-11-27T07:06:21.206Z,2.28
2022-11-27T07:08:47.973Z,2.17
2022-11-27T07:11:20.736Z,1.77
2022-11-27T07:13:49.893Z,1.90
2022-11-27T07:16:36.242Z,1.95
2022-11-27T07:19:07.481Z,1.65
2022-11-27T07:21:37.554Z,2.17
2022-11-27T07:24:04.221Z,2.10
2022-11-27T07:26:31.062Z,2.00
2022-11-27T07:28:57.563Z,2.40
2022-11-27T07:31:28.056Z,2.10
2022-11-27T07:33:55.188Z,2.25
2022-11-27T07:36:24.068Z,1.98
2022-11-27T07:38:51.098Z,2.45
2022-11-27T07:41:18.174Z,2.28
2022-11-27T07:43:51.523Z,2.30
2022-11-27T07:46:23.409Z,2.67
2022-11-27T07:48:50.010Z,2.47
2022-11-27T07:51:19.830Z,2.70
2022-11-27T07:53:51.912Z,2.80
2022-11-27T07:56:19.351Z,2.78
2022-11-27T07:58:46.152Z,2.67
2022-11-27T08:01:15.118Z,2.75
2022-11-27T08:03:45.821Z,2.70
2022-11-27T08:06:31.650Z,2.63
2022-11-27T08:08:58.080Z,2.97
2022-11-27T08:11:27.580Z,2.00
2022-11-27T08:14:02.168Z,2.20
2022-11-27T08:16:36.775Z,2.25
2022-11-27T08:19:04.317Z,2.50
2022-11-27T08:21:30.795Z,2.40
2022-11-27T08:23:59.281Z,2.88
2022-11-27T08:26:27.779Z,2.65
2022-11-27T08:29:00.658Z,2.85
2022-11-27T08:31:27.351Z,3.35
2022-11-27T08:33:53.995Z,3.90
2022-11-27T08:36:20.484Z,3.85
2022-11-27T08:38:54.396Z,6.25
2022-11-27T08:41:21.811Z,5.38
2022-11-27T08:43:48.237Z,4.60
2022-11-27T08:46:14.875Z,5.13
2022-11-27T08:48:42.023Z,4.55
2022-11-27T08:51:14.387Z,4.88
2022-11-27T08:53:41.045Z,5.63
2022-11-27T08:56:26.583Z,5.30
2022-11-27T08:58:53.197Z,7.00
2022-11-27T09:01:24.952Z,6.10
2022-11-27T13:31:47.047Z,6.70
2022-11-27T13:34:27.998Z,1.90
2022-11-27T13:37:02.384Z,1.95
2022-11-27T13:39:42.100Z,1.88
2022-11-27T13:42:21.194Z,2.00
2022-11-27T13:44:57.193Z,1.98
2022-11-27T13:47:26.479Z,2.85
2022-11-27T13:50:02.912Z,3.08
2022-11-27T13:54:58.068Z,2.00
2022-11-27T13:57:30.495Z,2.00
2022-11-27T14:00:13.487Z,2.33
2022-11-27T14:02:41.159Z,2.80
2022-11-27T14:05:08.141Z,3.00
2022-11-27T14:07:45.413Z,2.50
2022-11-27T14:10:19.966Z,2.20
2022-11-27T14:13:08.053Z,2.75
2022-11-27T14:16:24.188Z,2.00
2022-11-27T14:18:52.978Z,2.33
2022-11-27T14:21:42.507Z,2.15
2022-11-27T14:24:45.806Z,2.22
2022-11-27T15:07:45.170Z,2.38
2022-11-27T15:10:38.235Z,2.60
2022-11-27T15:13:28.087Z,2.72
2022-11-27T15:16:13.705Z,2.13
2022-11-27T15:18:41.745Z,2.22
2022-11-27T15:21:16.796Z,2.58
2022-11-27T15:23:49.843Z,2.63
2022-11-27T15:26:44.274Z,4.05
2022-11-27T15:29:32.365Z,5.18
2022-11-27T15:31:58.821Z,4.05
2022-11-27T15:34:25.386Z,3.47
2022-11-27T15:36:59.640Z,2.67
2022-11-27T15:39:57.821Z,2.70
2022-11-27T15:42:28.748Z,2.60
2022-11-27T15:44:57.271Z,2.72
2022-11-27T15:47:33.720Z,2.50
2022-11-27T15:50:17.030Z,2.60
2022-11-27T15:52:44.139Z,2.33
2022-11-27T15:55:17.718Z,2.75
2022-11-27T15:58:15.608Z,2.42
2022-11-27T16:00:42.115Z,2.67
2022-11-27T16:03:08.697Z,3.03
2022-11-27T16:05:41.895Z,3.00
2022-11-27T16:08:10.824Z,3.35
2022-11-27T16:10:42.377Z,4.10
2022-11-27T16:13:09.006Z,3.25
2022-11-27T16:15:35.433Z,2.70
2022-11-27T16:18:01.890Z,2.03
2022-11-27T16:20:28.354Z,2.05
2022-11-27T16:22:54.776Z,2.95
2022-11-27T16:25:22.340Z,3.63
2022-11-27T16:27:48.767Z,3.63
2022-11-27T16:30:15.379Z,3.45
2022-11-27T16:32:42.821Z,4.07
2022-11-27T16:35:16.651Z,4.20
2022-11-27T16:37:45.104Z,4.50
2022-11-27T16:40:12.228Z,3.90
2022-11-27T16:42:40.755Z,3.95
2022-11-27T16:45:07.850Z,5.10
2022-11-27T16:47:37.394Z,4.55
2022-11-27T16:50:04.192Z,5.00
2022-11-27T16:52:30.630Z,5.45
2022-11-27T16:54:58.187Z,5.93
2022-11-27T16:57:33.733Z,7.20
2022-11-27T17:00:05.888Z,7.05
2022-11-27T17:02:39.340Z,7.35
2022-11-27T17:05:11.902Z,6.72
2022-11-27T17:07:38.538Z,8.02
2022-11-27T17:10:14.071Z,8.45
2022-11-27T17:12:40.609Z,11.32
2022-11-27T17:15:14.724Z,11.32
2022-11-27T17:17:44.332Z,10.75
2022-11-27T17:20:21.956Z,9.20
2022-11-27T17:22:57.603Z,9.38
2022-11-27T17:25:25.219Z,9.45
2022-11-27T17:28:01.025Z,9.95
2022-11-27T17:30:27.509Z,9.02
2022-11-27T17:32:56.312Z,7.93
2022-11-27T17:35:30.946Z,6.13
2022-11-27T17:38:00.467Z,5.60
2022-11-27T17:40:26.944Z,5.38
2022-11-27T17:43:12.733Z,5.68
2022-11-27T17:45:43.105Z,7.20
2022-11-27T17:48:12.830Z,7.68
2022-11-27T17:50:39.306Z,6.68
2022-11-27T17:53:05.730Z,6.72
2022-11-27T17:55:33.139Z,6.65
2022-11-27T17:57:59.621Z,7.13
2022-11-27T18:00:40.282Z,8.07
2022-11-27T18:03:07.872Z,8.38
2022-11-27T18:05:46.721Z,8.48
2022-11-27T18:08:13.153Z,9.15
2022-11-27T18:10:44.803Z,9.55
2022-11-27T18:13:26.404Z,9.93
2022-11-27T18:15:52.905Z,9.60
2022-11-27T18:18:34.051Z,9.68
2022-11-27T18:21:18.476Z,10.25
2022-11-27T18:29:50.169Z,9.75
2022-11-27T18:32:18.592Z,9.98
2022-11-27T18:34:45.982Z,9.63
2022-11-27T18:37:15.583Z,9.73
2022-11-27T18:39:44.447Z,9.75
2022-11-27T18:42:11.943Z,9.32
2022-11-27T18:45:00.039Z,8.95
2022-11-27T18:47:33.500Z,10.27
2022-11-27T18:50:19.104Z,11.40
2022-11-27T18:52:47.804Z,12.18
2022-11-27T18:55:23.405Z,11.13
2022-11-27T18:58:01.168Z,10.85
2022-11-27T19:00:28.086Z,10.30
2022-11-27T19:02:54.777Z,10.45
2022-11-27T19:05:23.382Z,9.07
2022-11-27T19:07:49.902Z,9.95
2022-11-27T19:10:21.436Z,9.38
2022-11-27T19:12:48.866Z,9.13
2022-11-27T19:15:16.340Z,9.48
2022-11-27T19:17:42.883Z,9.48
2022-11-27T19:20:15.588Z,8.65
2022-11-27T19:22:44.034Z,9.35
2022-11-27T19:25:11.477Z,8.98
2022-11-27T19:27:37.924Z,9.20
2022-11-27T19:30:05.644Z,8.98
2022-11-27T19:32:39.434Z,8.73
2022-11-27T19:35:31.463Z,8.52
2022-11-27T19:38:03.509Z,7.95
2022-11-27T19:40:33.214Z,8.85
2022-11-27T19:43:01.356Z,8.10
2022-11-27T19:45:35.130Z,9.18
2022-11-27T19:48:02.794Z,8.85
2022-11-27T19:50:36.167Z,8.73
2022-11-27T19:53:05.076Z,8.15
2022-11-27T19:55:31.922Z,9.63
2022-11-27T19:57:59.498Z,9.00
2022-11-27T20:00:34.042Z,8.85
2022-11-27T20:03:00.497Z,11.50
2022-11-27T20:05:29.123Z,11.40
2022-11-27T20:07:55.638Z,10.05
2022-11-27T20:10:48.700Z,10.63
2022-11-27T20:13:16.161Z,9.93
2022-11-27T20:15:48.522Z,9.55
2022-11-27T20:18:16.995Z,9.88
2022-11-27T20:20:46.899Z,10.10
2022-11-27T20:23:14.597Z,9.75
2022-11-27T20:25:47.065Z,9.55
2022-11-27T20:28:23.667Z,10.35
2022-11-27T20:31:00.870Z,9.60
2022-11-27T20:33:36.677Z,8.80
2022-11-27T20:36:03.489Z,9.05
2022-11-27T20:38:34.990Z,8.23
2022-11-27T20:41:09.311Z,8.52
2022-11-27T20:43:37.033Z,7.78
2022-11-27T20:46:04.272Z,7.75
2022-11-27T20:48:35.083Z,8.25
2022-11-27T20:51:11.082Z,7.78
2022-11-27T20:53:49.972Z,8.25
2022-11-27T20:56:25.986Z,7.78
2022-11-27T20:59:01.696Z,7.80
2022-11-27T21:01:32.247Z,7.60
2022-11-27T21:04:10.743Z,7.63
2022-11-27T21:06:43.745Z,8.50
2022-11-27T21:09:12.248Z,8.60
2022-11-27T21:11:41.311Z,8.45
2022-11-27T21:14:17.338Z,8.02
2022-11-27T21:16:54.401Z,7.15
2022-11-27T21:19:25.350Z,6.70
2022-11-27T21:21:55.002Z,7.30
2022-11-27T21:24:26.348Z,7.40
2022-11-27T21:27:01.043Z,7.93
2022-11-27T21:29:27.744Z,8.15
2022-11-27T21:31:55.240Z,7.38
2022-11-27T21:34:24.027Z,7.57
2022-11-27T21:37:05.795Z,6.60
2022-11-27T21:39:33.258Z,7.18
2022-11-27T21:42:10.475Z,6.25
2022-11-27T21:44:41.327Z,6.43
2022-11-27T21:47:12.143Z,6.75
2022-11-27T21:49:39.752Z,6.38
2022-11-27T21:52:23.621Z,6.82
2022-11-27T21:54:50.850Z,7.05
2022-11-27T21:57:17.392Z,7.38
2022-11-27T21:59:43.869Z,7.32
2022-11-27T22:02:11.993Z,6.57
2022-11-27T22:04:39.676Z,5.10
2022-11-27T22:07:08.336Z,4.97
2022-11-27T22:09:34.819Z,5.57
2022-11-27T22:12:01.355Z,6.45
2022-11-27T22:14:31.039Z,5.80
2022-11-27T22:17:02.636Z,5.60
2022-11-27T22:19:42.202Z,6.22
2022-11-27T22:22:17.990Z,6.40
2022-11-27T22:24:44.610Z,6.43
2022-11-27T22:27:11.174Z,6.45
2022-11-27T22:29:46.954Z,6.75
2022-11-27T22:32:14.518Z,7.30
2022-11-27T22:34:45.153Z,6.68
2022-11-27T22:37:21.947Z,6.55
2022-11-27T22:39:48.353Z,6.20
2022-11-27T22:42:14.784Z,6.82
2022-11-27T22:44:41.318Z,7.15
2022-11-27T22:47:07.947Z,6.85
2022-11-27T22:49:37.424Z,7.30
2022-11-27T22:52:04.001Z,6.55
2022-11-27T22:54:33.583Z,6.18
2022-11-27T22:57:00.046Z,6.40
2022-11-27T22:59:34.723Z,6.18
2022-11-27T23:02:02.425Z,6.72
2022-11-27T23:04:28.913Z,6.43
2022-11-27T23:06:57.370Z,6.28
2022-11-27T23:09:23.918Z,5.95
2022-11-27T23:11:50.496Z,6.75
2022-11-27T23:14:22.602Z,6.90
2022-11-27T23:16:57.330Z,6.25
2022-11-27T23:19:23.876Z,6.45
2022-11-27T23:21:57.282Z,6.55
2022-11-27T23:24:23.708Z,6.80
2022-11-27T23:26:50.219Z,5.95
2022-11-27T23:29:16.701Z,5.57
2022-11-27T23:31:43.487Z,5.57
2022-11-27T23:34:13.917Z,5.68
2022-11-27T23:36:40.475Z,5.70
2022-11-27T23:39:11.588Z,5.60
2022-11-27T23:41:39.728Z,5.53
2022-11-27T23:44:06.377Z,6.10
2022-11-27T23:46:32.835Z,6.30
2022-11-27T23:49:00.207Z,5.65
2022-11-27T23:51:28.972Z,5.22
2022-11-27T23:53:55.723Z,5.28
2022-11-27T23:56:27.908Z,4.93
2022-11-27T23:58:55.604Z,4.80
